Terminal Aerodrome Forecast
Issued by NWS

Home | Current Version | Previous Version | Text Only | Print | Product List | Glossary On
Versions: 1 2 3 4 5 6 7 8 9 10 11 12 13
000
FTUS45 KBOI 212338
TAFJER
TAF
KJER 212338Z 2200/2224 24018G26KT P6SM SCT080
     FM220800 23007KT P6SM SKC
     FM221800 24010KT P6SM -SHSN BKN025
      AMD NOT SKED=

USA.gov is the U.S. government's official web portal to all federal, state and local government web resources and services.